Umiak I — XJAR — position and weather

sailwx.info

Track history (hours):
 
Tides and Currents Weather Stations Pressure Air Temp Water Temp Dewpoint Dewpoint Depression Visibility Wind Speed Wind Dir Waves Ship Positions

Umiak I

Last reported at 2017-Sep-05 07:13 UTC. Time now 2017-Sep-22 20:57 UTC.
Position N 47°10' W 052°39'.
Warning: this ship's position is 17 days out of date.

Length 188 m; draft 12 m.

Type: Ship. MMSI: 316013340.

Date/timePositionNaut miles runAvg speedWind from/ knotsBaromVisibWave heightAir tempDewpointWater temp
2017-Sep-05 07:13N 47°10' W 052°39'311.3
2017-Sep-05 06:56N 47°13' W 052°38'511.2
2017-Sep-05 06:30N 47°18' W 052°36'611.3
2017-Sep-05 06:00N 47°24' W 052°34'611.2
2017-Sep-05 05:29N 47°29' W 052°32'510.8
2017-Sep-05 04:59N 47°35' W 052°32'611.0
2017-Sep-05 04:28N 47°40' W 052°33'  
2017-Aug-27 20:50N 51°05' W 057°27'412.6
2017-Aug-27 20:30N 51°02' W 057°31'612.7
2017-Aug-27 20:00N 50°57' W 057°38'  
Track history (hours):
 
Tides and Currents Weather Stations Pressure Air Temp Water Temp Dewpoint Dewpoint Depression Visibility Wind Speed Wind Dir Waves Ship Positions

Umiak I

Last reported at 2017-Sep-05 07:13 UTC. Time now 2017-Sep-22 20:57 UTC.
Position N 47°10' W 052°39'.
Warning: this ship's position is 17 days out of date.

Length 188 m; draft 12 m.

Type: Ship. MMSI: 316013340.

Date/timePositionNaut miles runAvg speedWind from/ knotsBaromVisibWave heightAir tempDewpointWater temp
2017-Sep-05 07:13N 47°10' W 052°39'311.3
2017-Sep-05 06:56N 47°13' W 052°38'511.2
2017-Sep-05 06:30N 47°18' W 052°36'611.3
2017-Sep-05 06:00N 47°24' W 052°34'611.2
2017-Sep-05 05:29N 47°29' W 052°32'510.8
2017-Sep-05 04:59N 47°35' W 052°32'611.0
2017-Sep-05 04:28N 47°40' W 052°33'  
2017-Aug-27 20:50N 51°05' W 057°27'412.6
2017-Aug-27 20:30N 51°02' W 057°31'612.7
2017-Aug-27 20:00N 50°57' W 057°38'  

Dump ship's entire track history